sensor_id;sensor_type;location;lat;lon;timestamp;P1;durP1;ratioP1;P2;durP2;ratioP2
69989;SDS011;57331;52.054;5.294;2023-02-08T00:00:40;20.27;;;7.57;;
69989;SDS011;57331;52.054;5.294;2023-02-08T00:03:07;18.75;;;7.95;;
69989;SDS011;57331;52.054;5.294;2023-02-08T00:05:34;19.63;;;7.53;;
69989;SDS011;57331;52.054;5.294;2023-02-08T00:08:02;16.17;;;7.90;;
69989;SDS011;57331;52.054;5.294;2023-02-08T00:10:29;20.48;;;7.97;;
69989;SDS011;57331;52.054;5.294;2023-02-08T00:12:56;16.63;;;7.50;;
69989;SDS011;57331;52.054;5.294;2023-02-08T00:15:24;17.52;;;8.25;;
69989;SDS011;57331;52.054;5.294;2023-02-08T00:17:51;20.73;;;7.60;;
69989;SDS011;57331;52.054;5.294;2023-02-08T00:20:18;19.63;;;9.07;;
69989;SDS011;57331;52.054;5.294;2023-02-08T00:22:45;20.60;;;7.80;;
69989;SDS011;57331;52.054;5.294;2023-02-08T00:25:12;22.30;;;8.82;;
69989;SDS011;57331;52.054;5.294;2023-02-08T00:27:40;20.10;;;9.18;;
69989;SDS011;57331;52.054;5.294;2023-02-08T00:30:07;18.35;;;9.15;;
69989;SDS011;57331;52.054;5.294;2023-02-08T00:32:36;19.73;;;8.63;;
69989;SDS011;57331;52.054;5.294;2023-02-08T00:35:03;18.70;;;9.50;;
69989;SDS011;57331;52.054;5.294;2023-02-08T00:37:30;19.92;;;7.78;;
69989;SDS011;57331;52.054;5.294;2023-02-08T00:39:57;19.43;;;9.27;;
69989;SDS011;57331;52.054;5.294;2023-02-08T00:42:27;19.08;;;9.00;;
69989;SDS011;57331;52.054;5.294;2023-02-08T00:44:55;24.23;;;9.13;;
69989;SDS011;57331;52.054;5.294;2023-02-08T00:47:23;23.08;;;8.80;;
69989;SDS011;57331;52.054;5.294;2023-02-08T00:49:50;21.73;;;8.73;;
69989;SDS011;57331;52.054;5.294;2023-02-08T00:52:17;22.27;;;8.20;;
69989;SDS011;57331;52.054;5.294;2023-02-08T00:54:45;21.98;;;9.32;;
69989;SDS011;57331;52.054;5.294;2023-02-08T00:57:13;22.63;;;9.05;;
69989;SDS011;57331;52.054;5.294;2023-02-08T00:59:40;19.15;;;9.43;;
69989;SDS011;57331;52.054;5.294;2023-02-08T01:02:08;19.80;;;9.20;;
69989;SDS011;57331;52.054;5.294;2023-02-08T01:04:35;23.25;;;8.88;;
69989;SDS011;57331;52.054;5.294;2023-02-08T01:07:03;22.35;;;9.27;;
69989;SDS011;57331;52.054;5.294;2023-02-08T01:09:30;18.52;;;8.82;;
69989;SDS011;57331;52.054;5.294;2023-02-08T01:11:58;21.02;;;9.48;;
69989;SDS011;57331;52.054;5.294;2023-02-08T01:14:25;18.50;;;9.10;;
69989;SDS011;57331;52.054;5.294;2023-02-08T01:16:53;17.23;;;8.15;;
69989;SDS011;57331;52.054;5.294;2023-02-08T01:19:20;19.63;;;7.65;;
69989;SDS011;57331;52.054;5.294;2023-02-08T01:21:48;22.58;;;8.23;;
69989;SDS011;57331;52.054;5.294;2023-02-08T01:24:15;21.73;;;9.67;;
69989;SDS011;57331;52.054;5.294;2023-02-08T01:26:42;20.67;;;8.95;;
69989;SDS011;57331;52.054;5.294;2023-02-08T01:29:10;20.88;;;8.88;;
69989;SDS011;57331;52.054;5.294;2023-02-08T01:31:37;22.38;;;9.95;;
69989;SDS011;57331;52.054;5.294;2023-02-08T01:34:06;20.65;;;9.52;;
69989;SDS011;57331;52.054;5.294;2023-02-08T01:36:34;22.27;;;9.83;;
69989;SDS011;57331;52.054;5.294;2023-02-08T01:39:02;19.77;;;9.52;;
69989;SDS011;57331;52.054;5.294;2023-02-08T01:41:32;18.25;;;8.68;;
69989;SDS011;57331;52.054;5.294;2023-02-08T01:46:44;21.17;;;8.87;;
69989;SDS011;57331;52.054;5.294;2023-02-08T01:51:59;21.17;;;9.20;;
69989;SDS011;57331;52.054;5.294;2023-02-08T01:54:32;20.52;;;9.07;;
69989;SDS011;57331;52.054;5.294;2023-02-08T01:57:03;19.35;;;7.90;;
69989;SDS011;57331;52.054;5.294;2023-02-08T01:59:33;20.30;;;9.17;;
69989;SDS011;57331;52.054;5.294;2023-02-08T02:02:06;21.20;;;10.13;;
69989;SDS011;57331;52.054;5.294;2023-02-08T02:04:35;17.90;;;8.23;;
69989;SDS011;57331;52.054;5.294;2023-02-08T02:07:02;22.17;;;9.35;;
69989;SDS011;57331;52.054;5.294;2023-02-08T02:09:31;17.10;;;8.60;;
69989;SDS011;57331;52.054;5.294;2023-02-08T02:12:10;19.23;;;9.02;;
69989;SDS011;57331;52.054;5.294;2023-02-08T02:14:38;21.75;;;10.18;;
69989;SDS011;57331;52.054;5.294;2023-02-08T02:17:05;21.65;;;9.52;;
69989;SDS011;57331;52.054;5.294;2023-02-08T02:19:39;19.47;;;8.77;;
69989;SDS011;57331;52.054;5.294;2023-02-08T02:25:40;20.05;;;9.15;;
69989;SDS011;57331;52.054;5.294;2023-02-08T02:34:09;24.23;;;10.90;;
69989;SDS011;57331;52.054;5.294;2023-02-08T02:39:48;22.80;;;9.13;;
69989;SDS011;57331;52.054;5.294;2023-02-08T02:42:21;22.60;;;9.70;;
69989;SDS011;57331;52.054;5.294;2023-02-08T02:48:04;17.75;;;8.38;;
69989;SDS011;57331;52.054;5.294;2023-02-08T02:50:36;21.00;;;9.52;;
69989;SDS011;57331;52.054;5.294;2023-02-08T02:53:31;21.05;;;9.90;;
69989;SDS011;57331;52.054;5.294;2023-02-08T02:56:02;19.10;;;8.67;;
69989;SDS011;57331;52.054;5.294;2023-02-08T02:58:31;22.05;;;9.93;;
69989;SDS011;57331;52.054;5.294;2023-02-08T03:00:58;28.45;;;9.63;;
69989;SDS011;57331;52.054;5.294;2023-02-08T03:03:27;18.55;;;8.50;;
69989;SDS011;57331;52.054;5.294;2023-02-08T03:06:13;22.37;;;9.57;;
69989;SDS011;57331;52.054;5.294;2023-02-08T03:09:28;24.27;;;9.50;;
69989;SDS011;57331;52.054;5.294;2023-02-08T03:11:35;24.13;;;9.27;;
69989;SDS011;57331;52.054;5.294;2023-02-08T03:16:58;22.93;;;10.07;;
69989;SDS011;57331;52.054;5.294;2023-02-08T03:22:01;22.27;;;9.80;;
69989;SDS011;57331;52.054;5.294;2023-02-08T03:27:33;21.27;;;8.88;;
69989;SDS011;57331;52.054;5.294;2023-02-08T03:30:22;24.95;;;9.68;;
69989;SDS011;57331;52.054;5.294;2023-02-08T03:32:58;20.75;;;10.00;;
69989;SDS011;57331;52.054;5.294;2023-02-08T03:38:28;24.52;;;10.10;;
69989;SDS011;57331;52.054;5.294;2023-02-08T03:40:48;21.03;;;9.70;;
69989;SDS011;57331;52.054;5.294;2023-02-08T03:43:20;21.08;;;10.15;;
69989;SDS011;57331;52.054;5.294;2023-02-08T03:45:54;20.17;;;9.15;;
69989;SDS011;57331;52.054;5.294;2023-02-08T03:48:23;26.10;;;9.90;;
69989;SDS011;57331;52.054;5.294;2023-02-08T03:50:52;15.27;;;7.60;;
69989;SDS011;57331;52.054;5.294;2023-02-08T03:53:22;26.95;;;10.15;;
69989;SDS011;57331;52.054;5.294;2023-02-08T03:55:53;23.60;;;10.88;;
69989;SDS011;57331;52.054;5.294;2023-02-08T03:58:30;25.25;;;9.85;;
69989;SDS011;57331;52.054;5.294;2023-02-08T04:01:42;24.07;;;10.73;;
69989;SDS011;57331;52.054;5.294;2023-02-08T04:03:48;21.23;;;9.70;;
69989;SDS011;57331;52.054;5.294;2023-02-08T04:06:19;19.45;;;8.77;;
69989;SDS011;57331;52.054;5.294;2023-02-08T04:08:47;22.85;;;9.65;;
69989;SDS011;57331;52.054;5.294;2023-02-08T04:11:16;21.92;;;9.45;;
69989;SDS011;57331;52.054;5.294;2023-02-08T04:13:43;22.10;;;9.27;;
69989;SDS011;57331;52.054;5.294;2023-02-08T04:16:10;22.20;;;10.23;;
69989;SDS011;57331;52.054;5.294;2023-02-08T04:18:37;19.92;;;9.38;;
69989;SDS011;57331;52.054;5.294;2023-02-08T04:21:05;23.58;;;10.07;;
69989;SDS011;57331;52.054;5.294;2023-02-08T04:23:32;23.73;;;10.07;;
69989;SDS011;57331;52.054;5.294;2023-02-08T04:25:59;21.95;;;8.98;;
69989;SDS011;57331;52.054;5.294;2023-02-08T04:28:27;20.95;;;9.38;;
69989;SDS011;57331;52.054;5.294;2023-02-08T04:30:54;22.40;;;9.63;;
69989;SDS011;57331;52.054;5.294;2023-02-08T04:33:25;22.13;;;8.37;;
69989;SDS011;57331;52.054;5.294;2023-02-08T04:35:52;22.13;;;10.90;;
69989;SDS011;57331;52.054;5.294;2023-02-08T04:38:19;20.67;;;8.52;;
69989;SDS011;57331;52.054;5.294;2023-02-08T04:40:46;23.33;;;9.05;;
69989;SDS011;57331;52.054;5.294;2023-02-08T04:43:13;20.30;;;9.73;;
69989;SDS011;57331;52.054;5.294;2023-02-08T04:45:40;24.15;;;10.10;;
69989;SDS011;57331;52.054;5.294;2023-02-08T04:48:07;20.60;;;9.35;;
69989;SDS011;57331;52.054;5.294;2023-02-08T04:50:37;25.17;;;10.18;;
69989;SDS011;57331;52.054;5.294;2023-02-08T04:53:05;20.93;;;9.93;;
69989;SDS011;57331;52.054;5.294;2023-02-08T04:55:33;23.65;;;9.35;;
69989;SDS011;57331;52.054;5.294;2023-02-08T04:58:00;26.85;;;10.52;;
69989;SDS011;57331;52.054;5.294;2023-02-08T05:00:27;20.17;;;9.02;;
69989;SDS011;57331;52.054;5.294;2023-02-08T05:02:55;21.63;;;10.07;;
69989;SDS011;57331;52.054;5.294;2023-02-08T05:05:23;22.33;;;10.32;;
69989;SDS011;57331;52.054;5.294;2023-02-08T05:07:51;22.80;;;10.02;;
69989;SDS011;57331;52.054;5.294;2023-02-08T05:10:18;25.73;;;10.25;;
69989;SDS011;57331;52.054;5.294;2023-02-08T05:12:45;24.25;;;9.88;;
69989;SDS011;57331;52.054;5.294;2023-02-08T05:15:12;21.25;;;10.07;;
69989;SDS011;57331;52.054;5.294;2023-02-08T05:17:40;19.85;;;9.27;;
69989;SDS011;57331;52.054;5.294;2023-02-08T05:20:07;20.23;;;9.05;;
69989;SDS011;57331;52.054;5.294;2023-02-08T05:22:35;21.25;;;10.00;;
69989;SDS011;57331;52.054;5.294;2023-02-08T05:25:02;26.65;;;9.73;;
69989;SDS011;57331;52.054;5.294;2023-02-08T05:27:29;18.70;;;8.90;;
69989;SDS011;57331;52.054;5.294;2023-02-08T05:29:57;23.30;;;9.35;;
69989;SDS011;57331;52.054;5.294;2023-02-08T05:32:24;23.23;;;10.00;;
69989;SDS011;57331;52.054;5.294;2023-02-08T05:34:51;23.05;;;9.35;;
69989;SDS011;57331;52.054;5.294;2023-02-08T05:37:19;22.85;;;9.30;;
69989;SDS011;57331;52.054;5.294;2023-02-08T05:39:46;23.83;;;10.63;;
69989;SDS011;57331;52.054;5.294;2023-02-08T05:42:13;22.63;;;9.30;;
69989;SDS011;57331;52.054;5.294;2023-02-08T05:44:40;23.88;;;9.57;;
69989;SDS011;57331;52.054;5.294;2023-02-08T05:47:07;19.65;;;9.63;;
69989;SDS011;57331;52.054;5.294;2023-02-08T05:49:34;26.02;;;10.60;;
69989;SDS011;57331;52.054;5.294;2023-02-08T05:52:01;21.23;;;9.03;;
69989;SDS011;57331;52.054;5.294;2023-02-08T05:54:29;24.55;;;10.93;;
69989;SDS011;57331;52.054;5.294;2023-02-08T05:56:56;22.70;;;9.60;;
69989;SDS011;57331;52.054;5.294;2023-02-08T05:59:23;24.15;;;10.10;;
69989;SDS011;57331;52.054;5.294;2023-02-08T06:01:50;24.60;;;11.47;;
69989;SDS011;57331;52.054;5.294;2023-02-08T06:04:17;22.45;;;10.00;;
69989;SDS011;57331;52.054;5.294;2023-02-08T06:06:45;22.38;;;10.15;;
69989;SDS011;57331;52.054;5.294;2023-02-08T06:09:12;17.77;;;8.30;;
69989;SDS011;57331;52.054;5.294;2023-02-08T06:11:40;21.75;;;9.60;;
69989;SDS011;57331;52.054;5.294;2023-02-08T06:14:07;24.23;;;9.88;;
69989;SDS011;57331;52.054;5.294;2023-02-08T06:16:34;23.73;;;9.93;;
69989;SDS011;57331;52.054;5.294;2023-02-08T06:19:01;19.83;;;8.10;;
69989;SDS011;57331;52.054;5.294;2023-02-08T06:21:28;21.97;;;10.07;;
69989;SDS011;57331;52.054;5.294;2023-02-08T06:23:55;19.13;;;9.20;;
69989;SDS011;57331;52.054;5.294;2023-02-08T06:26:22;22.05;;;9.50;;
69989;SDS011;57331;52.054;5.294;2023-02-08T06:28:49;22.17;;;9.90;;
69989;SDS011;57331;52.054;5.294;2023-02-08T06:31:16;22.03;;;9.73;;
69989;SDS011;57331;52.054;5.294;2023-02-08T06:33:43;21.05;;;9.85;;
69989;SDS011;57331;52.054;5.294;2023-02-08T06:36:11;23.17;;;9.95;;
69989;SDS011;57331;52.054;5.294;2023-02-08T06:38:37;21.92;;;9.80;;
69989;SDS011;57331;52.054;5.294;2023-02-08T06:41:06;24.93;;;11.10;;
69989;SDS011;57331;52.054;5.294;2023-02-08T06:43:33;25.52;;;9.05;;
69989;SDS011;57331;52.054;5.294;2023-02-08T06:46:00;21.33;;;9.98;;
69989;SDS011;57331;52.054;5.294;2023-02-08T06:48:30;24.02;;;10.60;;
69989;SDS011;57331;52.054;5.294;2023-02-08T06:50:57;23.07;;;10.00;;
69989;SDS011;57331;52.054;5.294;2023-02-08T06:53:24;21.55;;;10.38;;
69989;SDS011;57331;52.054;5.294;2023-02-08T06:55:52;23.40;;;10.48;;
69989;SDS011;57331;52.054;5.294;2023-02-08T06:58:19;26.83;;;11.57;;
69989;SDS011;57331;52.054;5.294;2023-02-08T07:00:46;22.63;;;8.43;;
69989;SDS011;57331;52.054;5.294;2023-02-08T07:03:14;22.83;;;10.82;;
69989;SDS011;57331;52.054;5.294;2023-02-08T07:05:43;23.90;;;9.75;;
69989;SDS011;57331;52.054;5.294;2023-02-08T07:08:29;25.65;;;10.20;;
69989;SDS011;57331;52.054;5.294;2023-02-08T07:10:57;23.83;;;9.73;;
69989;SDS011;57331;52.054;5.294;2023-02-08T07:13:24;21.75;;;10.15;;
69989;SDS011;57331;52.054;5.294;2023-02-08T07:15:51;24.52;;;10.20;;
69989;SDS011;57331;52.054;5.294;2023-02-08T07:18:18;22.95;;;9.85;;
69989;SDS011;57331;52.054;5.294;2023-02-08T07:20:47;20.93;;;9.67;;
69989;SDS011;57331;52.054;5.294;2023-02-08T07:23:14;22.38;;;8.95;;
69989;SDS011;57331;52.054;5.294;2023-02-08T07:25:41;23.30;;;9.95;;
69989;SDS011;57331;52.054;5.294;2023-02-08T07:28:09;20.83;;;8.73;;
69989;SDS011;57331;52.054;5.294;2023-02-08T07:30:36;20.07;;;8.97;;
69989;SDS011;57331;52.054;5.294;2023-02-08T07:33:04;22.45;;;9.30;;
69989;SDS011;57331;52.054;5.294;2023-02-08T07:35:31;26.95;;;11.30;;
69989;SDS011;57331;52.054;5.294;2023-02-08T07:37:58;24.10;;;9.88;;
69989;SDS011;57331;52.054;5.294;2023-02-08T07:40:25;28.77;;;10.20;;
69989;SDS011;57331;52.054;5.294;2023-02-08T07:42:53;19.73;;;9.50;;
69989;SDS011;57331;52.054;5.294;2023-02-08T07:45:31;29.15;;;10.95;;
69989;SDS011;57331;52.054;5.294;2023-02-08T07:47:59;24.08;;;11.18;;
69989;SDS011;57331;52.054;5.294;2023-02-08T07:50:26;21.70;;;10.18;;
69989;SDS011;57331;52.054;5.294;2023-02-08T07:52:53;31.15;;;10.50;;
69989;SDS011;57331;52.054;5.294;2023-02-08T07:55:20;25.13;;;9.35;;
69989;SDS011;57331;52.054;5.294;2023-02-08T07:57:48;25.35;;;9.88;;
69989;SDS011;57331;52.054;5.294;2023-02-08T08:00:16;27.98;;;9.93;;
69989;SDS011;57331;52.054;5.294;2023-02-08T08:02:44;25.83;;;10.95;;
69989;SDS011;57331;52.054;5.294;2023-02-08T08:05:11;20.33;;;10.15;;
69989;SDS011;57331;52.054;5.294;2023-02-08T08:07:39;22.15;;;9.90;;
69989;SDS011;57331;52.054;5.294;2023-02-08T08:10:06;22.98;;;9.85;;
69989;SDS011;57331;52.054;5.294;2023-02-08T08:12:33;19.17;;;7.33;;
69989;SDS011;57331;52.054;5.294;2023-02-08T08:15:01;24.75;;;9.65;;
69989;SDS011;57331;52.054;5.294;2023-02-08T08:17:28;15.55;;;7.43;;
69989;SDS011;57331;52.054;5.294;2023-02-08T08:19:55;18.73;;;8.80;;
69989;SDS011;57331;52.054;5.294;2023-02-08T08:22:23;22.27;;;9.60;;
69989;SDS011;57331;52.054;5.294;2023-02-08T08:24:50;13.53;;;6.17;;
69989;SDS011;57331;52.054;5.294;2023-02-08T08:27:17;22.13;;;7.78;;
69989;SDS011;57331;52.054;5.294;2023-02-08T08:29:44;19.73;;;8.82;;
69989;SDS011;57331;52.054;5.294;2023-02-08T08:32:12;18.73;;;7.97;;
69989;SDS011;57331;52.054;5.294;2023-02-08T08:34:39;20.75;;;9.02;;
69989;SDS011;57331;52.054;5.294;2023-02-08T08:37:06;20.07;;;8.40;;
69989;SDS011;57331;52.054;5.294;2023-02-08T08:39:33;20.67;;;8.95;;
69989;SDS011;57331;52.054;5.294;2023-02-08T08:42:02;19.40;;;8.73;;
69989;SDS011;57331;52.054;5.294;2023-02-08T08:44:32;20.60;;;8.68;;
69989;SDS011;57331;52.054;5.294;2023-02-08T08:47:00;14.65;;;6.90;;
69989;SDS011;57331;52.054;5.294;2023-02-08T08:49:27;23.40;;;8.63;;
69989;SDS011;57331;52.054;5.294;2023-02-08T08:51:54;19.05;;;8.07;;
69989;SDS011;57331;52.054;5.294;2023-02-08T08:54:22;18.75;;;8.55;;
69989;SDS011;57331;52.054;5.294;2023-02-08T08:56:49;23.17;;;8.50;;
69989;SDS011;57331;52.054;5.294;2023-02-08T08:59:17;22.70;;;9.52;;
69989;SDS011;57331;52.054;5.294;2023-02-08T09:01:44;13.97;;;6.53;;
69989;SDS011;57331;52.054;5.294;2023-02-08T09:04:12;11.05;;;5.50;;
69989;SDS011;57331;52.054;5.294;2023-02-08T09:06:39;18.20;;;9.10;;
69989;SDS011;57331;52.054;5.294;2023-02-08T09:09:06;19.92;;;8.65;;
69989;SDS011;57331;52.054;5.294;2023-02-08T09:11:34;20.48;;;8.63;;
69989;SDS011;57331;52.054;5.294;2023-02-08T09:14:01;19.17;;;9.20;;
69989;SDS011;57331;52.054;5.294;2023-02-08T09:16:30;21.02;;;9.88;;
69989;SDS011;57331;52.054;5.294;2023-02-08T09:19:01;20.00;;;9.75;;
69989;SDS011;57331;52.054;5.294;2023-02-08T09:21:29;20.65;;;8.70;;
69989;SDS011;57331;52.054;5.294;2023-02-08T09:23:57;19.23;;;8.27;;
69989;SDS011;57331;52.054;5.294;2023-02-08T09:26:24;20.03;;;9.03;;
69989;SDS011;57331;52.054;5.294;2023-02-08T09:28:52;27.77;;;9.30;;
69989;SDS011;57331;52.054;5.294;2023-02-08T09:31:20;23.67;;;8.98;;
69989;SDS011;57331;52.054;5.294;2023-02-08T09:33:53;16.05;;;7.20;;
69989;SDS011;57331;52.054;5.294;2023-02-08T09:36:22;22.38;;;8.32;;
69989;SDS011;57331;52.054;5.294;2023-02-08T09:38:56;17.00;;;8.67;;
69989;SDS011;57331;52.054;5.294;2023-02-08T09:44:16;19.17;;;8.50;;
69989;SDS011;57331;52.054;5.294;2023-02-08T09:47:02;19.58;;;8.88;;
69989;SDS011;57331;52.054;5.294;2023-02-08T09:49:39;16.10;;;7.43;;
69989;SDS011;57331;52.054;5.294;2023-02-08T09:52:15;17.53;;;8.13;;
69989;SDS011;57331;52.054;5.294;2023-02-08T09:54:49;18.75;;;9.20;;
69989;SDS011;57331;52.054;5.294;2023-02-08T09:57:21;22.38;;;9.02;;
69989;SDS011;57331;52.054;5.294;2023-02-08T09:59:52;24.02;;;7.60;;
69989;SDS011;57331;52.054;5.294;2023-02-08T10:02:32;13.70;;;6.97;;
69989;SDS011;57331;52.054;5.294;2023-02-08T10:07:31;16.30;;;7.95;;
69989;SDS011;57331;52.054;5.294;2023-02-08T10:10:20;15.55;;;6.07;;
69989;SDS011;57331;52.054;5.294;2023-02-08T10:15:48;22.65;;;8.65;;
69989;SDS011;57331;52.054;5.294;2023-02-08T10:34:44;14.95;;;7.00;;
69989;SDS011;57331;52.054;5.294;2023-02-08T10:37:33;15.93;;;7.15;;
69989;SDS011;57331;52.054;5.294;2023-02-08T10:43:16;16.42;;;7.90;;
69989;SDS011;57331;52.054;5.294;2023-02-08T10:48:17;16.77;;;7.45;;
69989;SDS011;57331;52.054;5.294;2023-02-08T10:51:12;18.35;;;8.02;;
69989;SDS011;57331;52.054;5.294;2023-02-08T10:53:43;16.85;;;7.78;;
69989;SDS011;57331;52.054;5.294;2023-02-08T10:56:20;13.15;;;6.15;;
69989;SDS011;57331;52.054;5.294;2023-02-08T10:58:56;18.50;;;8.83;;
69989;SDS011;57331;52.054;5.294;2023-02-08T11:01:25;17.98;;;7.82;;
69989;SDS011;57331;52.054;5.294;2023-02-08T11:04:09;15.70;;;7.90;;
69989;SDS011;57331;52.054;5.294;2023-02-08T11:06:38;18.05;;;7.80;;
69989;SDS011;57331;52.054;5.294;2023-02-08T11:11:55;14.70;;;7.97;;
69989;SDS011;57331;52.054;5.294;2023-02-08T11:14:26;16.75;;;8.52;;
69989;SDS011;57331;52.054;5.294;2023-02-08T11:19:53;17.35;;;8.20;;
69989;SDS011;57331;52.054;5.294;2023-02-08T11:22:22;17.60;;;8.40;;
69989;SDS011;57331;52.054;5.294;2023-02-08T11:25:04;15.07;;;7.53;;
69989;SDS011;57331;52.054;5.294;2023-02-08T11:27:36;17.40;;;9.02;;
69989;SDS011;57331;52.054;5.294;2023-02-08T11:32:41;13.13;;;6.60;;
69989;SDS011;57331;52.054;5.294;2023-02-08T11:35:10;18.27;;;7.20;;
69989;SDS011;57331;52.054;5.294;2023-02-08T11:37:56;13.13;;;7.97;;
69989;SDS011;57331;52.054;5.294;2023-02-08T11:40:34;16.20;;;8.15;;
69989;SDS011;57331;52.054;5.294;2023-02-08T11:43:03;19.02;;;9.05;;
69989;SDS011;57331;52.054;5.294;2023-02-08T11:45:31;14.13;;;7.97;;
69989;SDS011;57331;52.054;5.294;2023-02-08T11:48:02;15.38;;;7.80;;
69989;SDS011;57331;52.054;5.294;2023-02-08T11:50:31;16.60;;;9.80;;
69989;SDS011;57331;52.054;5.294;2023-02-08T11:56:01;14.10;;;7.55;;
69989;SDS011;57331;52.054;5.294;2023-02-08T12:01:35;15.85;;;8.63;;
69989;SDS011;57331;52.054;5.294;2023-02-08T12:04:07;15.97;;;8.30;;
69989;SDS011;57331;52.054;5.294;2023-02-08T12:06:54;14.05;;;9.05;;
69989;SDS011;57331;52.054;5.294;2023-02-08T12:15:22;20.63;;;8.75;;
69989;SDS011;57331;52.054;5.294;2023-02-08T12:18:15;14.48;;;8.77;;
69989;SDS011;57331;52.054;5.294;2023-02-08T12:21:25;15.63;;;8.93;;
69989;SDS011;57331;52.054;5.294;2023-02-08T12:24:02;16.20;;;9.20;;
69989;SDS011;57331;52.054;5.294;2023-02-08T12:29:33;15.10;;;8.80;;
69989;SDS011;57331;52.054;5.294;2023-02-08T12:37:57;17.17;;;8.75;;
69989;SDS011;57331;52.054;5.294;2023-02-08T12:43:42;15.93;;;9.35;;
69989;SDS011;57331;52.054;5.294;2023-02-08T12:57:13;15.57;;;8.90;;
69989;SDS011;57331;52.054;5.294;2023-02-08T12:59:44;14.60;;;9.30;;
69989;SDS011;57331;52.054;5.294;2023-02-08T13:02:17;14.90;;;9.07;;
69989;SDS011;57331;52.054;5.294;2023-02-08T13:04:46;14.52;;;8.73;;
69989;SDS011;57331;52.054;5.294;2023-02-08T13:07:18;15.48;;;8.70;;
69989;SDS011;57331;52.054;5.294;2023-02-08T13:09:57;15.65;;;8.82;;
69989;SDS011;57331;52.054;5.294;2023-02-08T13:12:56;14.30;;;8.80;;
69989;SDS011;57331;52.054;5.294;2023-02-08T13:18:12;13.75;;;8.73;;
69989;SDS011;57331;52.054;5.294;2023-02-08T13:20:44;15.90;;;8.98;;
69989;SDS011;57331;52.054;5.294;2023-02-08T13:23:40;13.80;;;8.73;;
69989;SDS011;57331;52.054;5.294;2023-02-08T13:26:19;15.88;;;8.80;;
69989;SDS011;57331;52.054;5.294;2023-02-08T13:28:49;14.10;;;8.97;;
69989;SDS011;57331;52.054;5.294;2023-02-08T13:31:25;15.07;;;8.90;;
69989;SDS011;57331;52.054;5.294;2023-02-08T13:33:58;13.93;;;8.65;;
69989;SDS011;57331;52.054;5.294;2023-02-08T13:36:35;17.75;;;9.13;;
69989;SDS011;57331;52.054;5.294;2023-02-08T13:39:21;16.15;;;8.90;;
69989;SDS011;57331;52.054;5.294;2023-02-08T13:41:54;13.03;;;9.13;;
69989;SDS011;57331;52.054;5.294;2023-02-08T13:44:27;13.80;;;9.07;;
69989;SDS011;57331;52.054;5.294;2023-02-08T13:46:57;14.75;;;9.13;;
69989;SDS011;57331;52.054;5.294;2023-02-08T13:53:01;13.90;;;8.95;;
69989;SDS011;57331;52.054;5.294;2023-02-08T13:57:57;14.50;;;9.02;;
69989;SDS011;57331;52.054;5.294;2023-02-08T14:00:34;13.73;;;8.75;;
69989;SDS011;57331;52.054;5.294;2023-02-08T14:05:53;14.50;;;9.35;;
69989;SDS011;57331;52.054;5.294;2023-02-08T14:08:28;14.03;;;8.87;;
69989;SDS011;57331;52.054;5.294;2023-02-08T14:13:43;14.63;;;9.00;;
69989;SDS011;57331;52.054;5.294;2023-02-08T14:19:02;13.63;;;8.23;;
69989;SDS011;57331;52.054;5.294;2023-02-08T14:24:00;14.98;;;8.93;;
69989;SDS011;57331;52.054;5.294;2023-02-08T14:26:30;12.50;;;8.43;;
69989;SDS011;57331;52.054;5.294;2023-02-08T14:28:59;14.38;;;8.60;;
69989;SDS011;57331;52.054;5.294;2023-02-08T14:31:37;12.35;;;8.20;;
69989;SDS011;57331;52.054;5.294;2023-02-08T14:34:20;14.20;;;8.27;;
69989;SDS011;57331;52.054;5.294;2023-02-08T14:37:02;12.82;;;8.18;;
69989;SDS011;57331;52.054;5.294;2023-02-08T14:39:45;12.95;;;8.13;;
69989;SDS011;57331;52.054;5.294;2023-02-08T14:42:52;11.77;;;8.02;;
69989;SDS011;57331;52.054;5.294;2023-02-08T14:45:32;11.57;;;7.38;;
69989;SDS011;57331;52.054;5.294;2023-02-08T14:50:58;13.38;;;7.47;;
69989;SDS011;57331;52.054;5.294;2023-02-08T14:53:38;12.48;;;7.32;;
69989;SDS011;57331;52.054;5.294;2023-02-08T14:58:49;13.40;;;6.80;;
69989;SDS011;57331;52.054;5.294;2023-02-08T15:04:00;11.50;;;7.03;;
69989;SDS011;57331;52.054;5.294;2023-02-08T15:09:36;10.98;;;5.88;;
69989;SDS011;57331;52.054;5.294;2023-02-08T15:12:23;12.38;;;6.28;;
69989;SDS011;57331;52.054;5.294;2023-02-08T15:15:00;10.25;;;5.47;;
69989;SDS011;57331;52.054;5.294;2023-02-08T15:17:36;11.15;;;5.32;;
69989;SDS011;57331;52.054;5.294;2023-02-08T15:20:17;9.55;;;5.50;;
69989;SDS011;57331;52.054;5.294;2023-02-08T15:22:46;8.48;;;4.68;;
69989;SDS011;57331;52.054;5.294;2023-02-08T15:25:22;8.60;;;4.80;;
69989;SDS011;57331;52.054;5.294;2023-02-08T15:27:53;8.57;;;4.65;;
69989;SDS011;57331;52.054;5.294;2023-02-08T15:30:41;10.23;;;5.03;;
69989;SDS011;57331;52.054;5.294;2023-02-08T15:33:12;7.78;;;4.57;;
69989;SDS011;57331;52.054;5.294;2023-02-08T15:35:43;8.32;;;5.10;;
69989;SDS011;57331;52.054;5.294;2023-02-08T15:38:15;10.73;;;4.60;;
69989;SDS011;57331;52.054;5.294;2023-02-08T15:43:34;9.55;;;4.55;;
69989;SDS011;57331;52.054;5.294;2023-02-08T15:46:03;8.60;;;4.43;;
69989;SDS011;57331;52.054;5.294;2023-02-08T15:48:32;9.32;;;4.80;;
69989;SDS011;57331;52.054;5.294;2023-02-08T15:51:03;8.03;;;4.77;;
69989;SDS011;57331;52.054;5.294;2023-02-08T15:53:33;9.88;;;4.63;;
69989;SDS011;57331;52.054;5.294;2023-02-08T15:56:01;9.65;;;5.00;;
69989;SDS011;57331;52.054;5.294;2023-02-08T15:58:31;10.90;;;4.82;;
69989;SDS011;57331;52.054;5.294;2023-02-08T16:01:01;11.82;;;4.70;;
69989;SDS011;57331;52.054;5.294;2023-02-08T16:03:30;11.33;;;5.60;;
69989;SDS011;57331;52.054;5.294;2023-02-08T16:05:59;10.27;;;4.88;;
69989;SDS011;57331;52.054;5.294;2023-02-08T16:08:30;11.63;;;5.53;;
69989;SDS011;57331;52.054;5.294;2023-02-08T16:11:00;12.73;;;5.25;;
69989;SDS011;57331;52.054;5.294;2023-02-08T16:13:34;11.85;;;5.43;;
69989;SDS011;57331;52.054;5.294;2023-02-08T16:16:14;11.07;;;5.30;;
69989;SDS011;57331;52.054;5.294;2023-02-08T16:18:42;10.95;;;5.25;;
69989;SDS011;57331;52.054;5.294;2023-02-08T16:23:58;13.45;;;5.78;;
69989;SDS011;57331;52.054;5.294;2023-02-08T16:26:45;10.68;;;5.47;;
69989;SDS011;57331;52.054;5.294;2023-02-08T16:29:30;12.93;;;5.80;;
69989;SDS011;57331;52.054;5.294;2023-02-08T16:35:13;15.05;;;5.90;;
69989;SDS011;57331;52.054;5.294;2023-02-08T16:37:52;22.50;;;8.85;;
69989;SDS011;57331;52.054;5.294;2023-02-08T16:43:16;11.60;;;5.90;;
69989;SDS011;57331;52.054;5.294;2023-02-08T16:48:52;15.93;;;6.45;;
69989;SDS011;57331;52.054;5.294;2023-02-08T16:51:30;16.92;;;7.25;;
69989;SDS011;57331;52.054;5.294;2023-02-08T16:54:00;18.83;;;8.63;;
69989;SDS011;57331;52.054;5.294;2023-02-08T16:56:35;27.07;;;12.37;;
69989;SDS011;57331;52.054;5.294;2023-02-08T16:59:03;18.35;;;8.05;;
69989;SDS011;57331;52.054;5.294;2023-02-08T17:01:30;19.88;;;8.20;;
69989;SDS011;57331;52.054;5.294;2023-02-08T17:03:58;12.05;;;6.05;;
69989;SDS011;57331;52.054;5.294;2023-02-08T17:09:00;13.47;;;6.40;;
69989;SDS011;57331;52.054;5.294;2023-02-08T17:11:29;12.20;;;6.13;;
69989;SDS011;57331;52.054;5.294;2023-02-08T17:13:57;12.95;;;6.63;;
69989;SDS011;57331;52.054;5.294;2023-02-08T17:16:25;14.52;;;6.20;;
69989;SDS011;57331;52.054;5.294;2023-02-08T17:18:55;13.00;;;6.85;;
69989;SDS011;57331;52.054;5.294;2023-02-08T17:21:22;17.87;;;7.53;;
69989;SDS011;57331;52.054;5.294;2023-02-08T17:23:49;18.38;;;7.85;;
69989;SDS011;57331;52.054;5.294;2023-02-08T17:26:19;16.17;;;8.05;;
69989;SDS011;57331;52.054;5.294;2023-02-08T17:28:48;19.52;;;9.02;;